Main page
METAR-TAF:

METAR-TAF

Airports :

Toulouse–Blagnac Airport

Toulouse, France

latitude: 43-38N, longitude: 001-22E, elevation: 152 m

Current weather observation

The report was made 23 minutes ago, at 22:30 UTC
Wind 12 kt from the West
Temperature 13°C
Humidity 94%
Pressure 1022 hPa
Visibility 10 km or more
Overcast at a height of 700 ft

METAR: LFBO 272230Z AUTO 28012KT 9999 OVC007 13/12 Q1022 BECMG OVC011

Time: 23:53 (22:53 UTC)

Forecast

The report was made 5 hours and 53 minutes ago, at 17:00 UTC
Forecast valid from 27 at 18 UTC to 28 at 24 UTC
Wind 10 kt from the West
Visibility 10 km or more
Overcast at a height of 1100 ft
Temporary
from 27 at 18 UTC to 27 at 23 UTC
Visibility: 3000 m
Overcast at a height of 400 ft
light rain, drizzle
Becoming
from 28 at 05 UTC to 28 at 07 UTC
Broken clouds at a height of 1600 ft
Overcast at a height of 4000 ft

TAF: LFBO 271700Z 2718/2824 27010KT 9999 OVC011 TEMPO 2718/2723 3000 -RADZ OVC004 BECMG 2805/2807 BKN016 OVC040

Weather observations and forecasts of more than 4000 airports (METAR and TAF reports).

The available stations are represented by yellow and red dots on the map.

Hover mouse over dot to see the name of the station.

Then click to see weather observations and forecasts.

To change the map : click on the green buttons with a black cross to zoom in, on the green button with a dash to zoom out, or on the green arrows for adjacent maps.


METAR-TAF: